createdAt,value
2019-03-26T00:04:05.636Z,45.52
2019-03-26T00:14:30.144Z,46.23
2019-03-26T00:19:39.078Z,48.33
2019-03-26T00:25:12.678Z,44.13
2019-03-26T00:35:26.029Z,35.95
2019-03-26T00:40:36.402Z,42.38
2019-03-26T00:45:43.230Z,38.83
2019-03-26T00:50:52.701Z,41.13
2019-03-26T01:01:24.890Z,39.38
2019-03-26T01:06:28.647Z,37.42
2019-03-26T01:11:36.508Z,42.85
2019-03-26T01:16:43.230Z,43.20
2019-03-26T01:21:50.003Z,40.00
2019-03-26T01:26:59.891Z,44.27
2019-03-26T01:32:06.241Z,41.83
2019-03-26T01:37:12.040Z,39.88
2019-03-26T01:42:19.865Z,42.62
2019-03-26T01:47:25.857Z,36.35
2019-03-26T01:52:34.093Z,41.00
2019-03-26T01:57:38.138Z,34.25
2019-03-26T02:02:47.906Z,35.08
2019-03-26T02:07:55.539Z,34.90
2019-03-26T02:13:04.120Z,30.88
2019-03-26T02:18:12.708Z,32.98
2019-03-26T02:23:19.845Z,35.47
2019-03-26T02:28:26.834Z,34.08
2019-03-26T02:33:38.610Z,30.85
2019-03-26T02:38:48.626Z,36.95
2019-03-26T02:43:53.848Z,31.40
2019-03-26T02:54:14.738Z,30.15
2019-03-26T02:59:19.126Z,38.25
2019-03-26T03:04:26.354Z,35.50
2019-03-26T03:09:31.370Z,29.18
2019-03-26T03:14:38.046Z,33.45
2019-03-26T03:19:42.124Z,30.32
2019-03-26T03:24:48.254Z,30.55
2019-03-26T03:29:55.192Z,29.98
2019-03-26T03:35:02.172Z,29.00
2019-03-26T03:40:10.221Z,35.55
2019-03-26T03:45:19.402Z,34.65
2019-03-26T03:50:25.781Z,35.88
2019-03-26T03:55:31.832Z,35.78
2019-03-26T04:00:39.427Z,39.27
2019-03-26T04:05:44.197Z,41.05
2019-03-26T04:10:50.910Z,44.48
2019-03-26T04:15:57.076Z,41.02
2019-03-26T04:21:04.039Z,45.38
2019-03-26T04:26:08.824Z,48.38
2019-03-26T04:31:16.578Z,50.20
2019-03-26T04:36:26.691Z,55.95
2019-03-26T04:41:34.374Z,55.95
2019-03-26T04:46:38.439Z,50.95
2019-03-26T05:02:31.355Z,44.30
2019-03-26T05:07:36.867Z,48.87
2019-03-26T05:12:58.523Z,46.37
2019-03-26T05:18:03.236Z,52.00
2019-03-26T05:28:37.705Z,45.33
2019-03-26T05:33:47.226Z,57.03
2019-03-26T05:38:51.388Z,54.70
2019-03-26T05:43:58.368Z,64.12
2019-03-26T05:54:31.467Z,54.00
2019-03-26T05:59:44.161Z,54.75
2019-03-26T06:04:51.341Z,48.87
2019-03-26T06:09:58.622Z,60.23
2019-03-26T06:20:51.440Z,57.65
2019-03-26T06:25:57.055Z,55.48
2019-03-26T06:31:06.103Z,53.55
2019-03-26T06:36:17.377Z,58.52
2019-03-26T06:46:26.842Z,49.95
2019-03-26T06:51:31.936Z,44.58
2019-03-26T06:56:35.555Z,52.67
2019-03-26T07:01:39.681Z,51.58
2019-03-26T07:06:44.094Z,53.08
2019-03-26T07:11:48.858Z,57.90
2019-03-26T07:16:55.748Z,45.33
2019-03-26T07:22:16.459Z,48.20
2019-03-26T07:27:22.553Z,39.38
2019-03-26T07:32:26.283Z,39.70
2019-03-26T07:37:30.089Z,38.40
2019-03-26T07:42:38.070Z,38.42
2019-03-26T07:47:45.128Z,37.48
2019-03-26T07:52:56.331Z,36.40
2019-03-26T07:58:01.822Z,34.38
2019-03-26T08:03:08.601Z,38.65
2019-03-26T08:13:41.018Z,40.40
2019-03-26T08:18:46.566Z,34.25
2019-03-26T08:23:50.699Z,41.63
2019-03-26T08:29:00.972Z,41.25
2019-03-26T08:34:05.249Z,36.13
2019-03-26T08:39:11.453Z,31.25
2019-03-26T08:44:15.226Z,34.05
2019-03-26T08:49:23.614Z,35.00
2019-03-26T08:54:30.224Z,32.25
2019-03-26T08:59:41.917Z,26.55
2019-03-26T09:04:47.267Z,33.42
2019-03-26T09:09:51.393Z,31.65
2019-03-26T09:14:55.425Z,29.18
2019-03-26T09:19:59.571Z,28.07
2019-03-26T09:25:09.592Z,30.32
2019-03-26T09:30:14.551Z,28.10
2019-03-26T09:35:20.918Z,28.15
2019-03-26T09:40:28.101Z,32.53
2019-03-26T09:45:31.457Z,34.15
2019-03-26T09:50:35.989Z,31.45
2019-03-26T09:55:39.644Z,31.95
2019-03-26T10:00:48.630Z,31.05
2019-03-26T10:05:55.656Z,37.78
2019-03-26T10:11:01.102Z,39.70
2019-03-26T10:16:12.022Z,40.48
2019-03-26T10:21:17.622Z,38.73
2019-03-26T10:26:24.287Z,48.05
2019-03-26T10:31:28.466Z,29.05
2019-03-26T10:36:35.001Z,36.40
2019-03-26T10:41:41.245Z,40.63
2019-03-26T10:46:46.177Z,33.50
2019-03-26T10:51:52.623Z,35.83
2019-03-26T10:57:01.398Z,44.13
2019-03-26T11:02:06.108Z,32.25
2019-03-26T11:07:10.724Z,23.30
2019-03-26T11:12:15.281Z,22.02
2019-03-26T11:17:19.158Z,26.97
2019-03-26T11:22:22.435Z,29.63
2019-03-26T11:27:28.304Z,24.70
2019-03-26T11:32:32.960Z,22.10
2019-03-26T11:37:37.522Z,22.15
2019-03-26T11:42:41.112Z,25.57
2019-03-26T11:47:46.827Z,22.77
2019-03-26T11:52:52.537Z,29.87
2019-03-26T11:57:57.217Z,30.62
2019-03-26T12:03:00.550Z,26.62
2019-03-26T12:08:04.841Z,33.88
2019-03-26T12:13:08.147Z,48.60
2019-03-26T12:18:12.615Z,53.25
2019-03-26T12:23:18.645Z,25.85
2019-03-26T12:28:27.376Z,24.10
2019-03-26T12:33:32.435Z,37.55
2019-03-26T12:38:36.988Z,27.85
2019-03-26T12:43:42.451Z,51.73
2019-03-26T12:48:46.515Z,43.17
2019-03-26T12:53:52.576Z,27.73
2019-03-26T12:58:56.000Z,23.05
2019-03-26T13:04:11.861Z,27.02
2019-03-26T13:09:16.091Z,18.15
2019-03-26T13:14:22.070Z,12.53
2019-03-26T13:19:28.029Z,17.35
2019-03-26T13:24:37.091Z,15.68
2019-03-26T13:29:40.642Z,18.48
2019-03-26T13:34:48.357Z,18.55
2019-03-26T13:39:55.546Z,15.53
2019-03-26T13:45:01.930Z,16.95
2019-03-26T13:50:12.736Z,13.90
2019-03-26T13:55:19.121Z,13.55
2019-03-26T14:00:36.154Z,14.53
2019-03-26T14:05:40.174Z,16.80
2019-03-26T14:10:46.909Z,17.98
2019-03-26T14:15:51.205Z,20.23
2019-03-26T14:20:54.498Z,20.40
2019-03-26T14:25:58.594Z,17.55
2019-03-26T14:31:02.661Z,16.10
2019-03-26T14:36:07.640Z,16.80
2019-03-26T14:41:14.678Z,18.20
2019-03-26T14:46:18.289Z,19.00
2019-03-26T14:51:33.687Z,18.23
2019-03-26T14:56:40.712Z,18.85
2019-03-26T15:01:44.453Z,16.55
2019-03-26T15:06:47.746Z,13.55
2019-03-26T15:11:54.529Z,3.20
2019-03-26T15:16:58.288Z,1.50
2019-03-26T15:22:02.371Z,1.40
2019-03-26T15:27:06.140Z,3.10
2019-03-26T15:32:11.065Z,3.65
2019-03-26T15:37:15.317Z,3.52
2019-03-26T15:42:19.333Z,5.22
2019-03-26T15:47:23.309Z,2.83
2019-03-26T15:52:27.257Z,4.78
2019-03-26T15:57:32.381Z,5.42
2019-03-26T16:02:39.108Z,3.80
2019-03-26T16:07:43.744Z,6.53
2019-03-26T16:12:47.923Z,3.52
2019-03-26T16:17:51.911Z,5.62
2019-03-26T16:22:56.747Z,7.00
2019-03-26T16:28:04.512Z,4.83
2019-03-26T16:33:09.237Z,8.23
2019-03-26T16:38:12.815Z,7.30
2019-03-26T16:43:18.350Z,7.35
2019-03-26T16:48:24.653Z,7.20
2019-03-26T16:58:53.044Z,17.17
2019-03-26T17:03:59.477Z,13.35
2019-03-26T17:09:07.391Z,17.60
2019-03-26T17:14:25.892Z,20.85
2019-03-26T17:19:32.643Z,26.70
2019-03-26T17:24:39.406Z,15.53
2019-03-26T17:35:20.249Z,14.10
2019-03-26T17:40:33.854Z,16.07
2019-03-26T17:45:38.964Z,16.23
2019-03-26T17:50:45.130Z,13.93
2019-03-26T17:55:49.325Z,14.20
2019-03-26T18:00:54.387Z,15.10
2019-03-26T18:06:03.042Z,12.85
2019-03-26T18:11:13.102Z,11.50
2019-03-26T18:21:54.973Z,11.40
2019-03-26T18:27:21.889Z,9.48
2019-03-26T18:32:30.963Z,12.35
2019-03-26T18:37:35.921Z,13.53
2019-03-26T18:42:47.063Z,10.35
2019-03-26T18:47:58.922Z,12.78
2019-03-26T18:53:09.497Z,13.75
2019-03-26T19:03:52.769Z,12.68
2019-03-26T19:08:57.806Z,8.00
2019-03-26T19:14:04.643Z,12.15
2019-03-26T19:19:08.276Z,13.05
2019-03-26T19:24:12.519Z,11.88
2019-03-26T19:29:16.822Z,13.60
2019-03-26T19:34:26.519Z,8.10
2019-03-26T19:44:59.018Z,10.35
2019-03-26T19:55:38.390Z,10.15
2019-03-26T20:06:23.145Z,9.43
2019-03-26T20:11:34.679Z,6.72
2019-03-26T20:16:41.955Z,7.53
2019-03-26T20:22:07.767Z,8.80
2019-03-26T20:50:03.390Z,8.55
2019-03-26T20:55:24.109Z,12.45
2019-03-26T21:11:28.315Z,13.15
2019-03-26T21:16:32.926Z,10.40
2019-03-26T21:21:36.304Z,14.07
2019-03-26T21:26:40.314Z,11.22
2019-03-26T21:31:51.568Z,8.58
2019-03-26T21:37:02.409Z,10.25
2019-03-26T21:42:07.612Z,11.90
2019-03-26T21:47:12.366Z,11.48
2019-03-26T21:52:19.121Z,10.65
2019-03-26T21:57:24.451Z,11.63
2019-03-26T22:02:29.207Z,11.10
2019-03-26T22:07:32.596Z,10.68
2019-03-26T22:12:40.437Z,9.18
2019-03-26T22:17:50.305Z,13.10
2019-03-26T22:23:02.120Z,10.40
2019-03-26T22:28:08.706Z,14.90
2019-03-26T22:33:14.502Z,10.70
2019-03-26T22:38:22.548Z,13.58
2019-03-26T22:43:26.518Z,10.45
2019-03-26T22:48:32.113Z,12.85
2019-03-26T22:53:38.758Z,11.35
2019-03-26T22:58:42.886Z,12.37
2019-03-26T23:03:47.874Z,9.73
2019-03-26T23:08:53.388Z,13.72
2019-03-26T23:14:00.051Z,10.63
2019-03-26T23:19:11.074Z,9.50
2019-03-26T23:24:15.384Z,8.33
2019-03-26T23:29:20.876Z,10.75
2019-03-26T23:34:26.537Z,6.55
2019-03-26T23:39:30.161Z,8.23
2019-03-26T23:44:36.741Z,8.55
2019-03-26T23:49:40.035Z,9.78
2019-03-26T23:54:43.427Z,7.87
2019-03-26T23:59:46.892Z,9.25
